Time;durP1;ratioP1;P1;durP2;ratioP2;P2;SDS_P1;SDS_P2;PMS_P1;PMS_P2;Temp;Humidity;BMP_temperature;BMP_pressure;BME280_temperature;BME280_humidity;BME280_pressure;Samples;Min_cycle;Max_cycle;Signal;HPM_P1;HPM_P2
2022/09/10 00:01:13;;;;;;;836.20;753.25;;;19.00;99.90;;;;;;5052043;28;20219;-83
2022/09/10 00:03:42;;;;;;;835.72;752.72;;;19.00;99.90;;;;;;5057566;28;20609;-83
2022/09/10 00:06:10;;;;;;;840.35;756.95;;;19.00;99.90;;;;;;5046792;28;20212;-84
2022/09/10 00:08:37;;;;;;;805.78;723.67;;;18.90;99.90;;;;;;5055449;28;20261;-84
2022/09/10 00:11:06;;;;;;;820.15;737.45;;;18.90;99.90;;;;;;5037989;28;20207;-82
2022/09/10 00:13:34;;;;;;;836.97;753.97;;;18.90;99.90;;;;;;5049948;28;20226;-84
2022/09/10 00:16:03;;;;;;;832.75;749.67;;;18.90;99.90;;;;;;5055658;28;20199;-84
2022/09/10 00:18:31;;;;;;;825.75;742.85;;;18.90;99.90;;;;;;5056696;28;20660;-83
2022/09/10 00:20:59;;;;;;;824.15;741.25;;;18.90;99.90;;;;;;5051894;28;20199;-82
2022/09/10 00:23:28;;;;;;;822.95;740.15;;;18.90;99.90;;;;;;5046576;28;20211;-80
2022/09/10 00:25:57;;;;;;;828.25;745.38;;;18.90;99.90;;;;;;5050594;28;20191;-81
2022/09/10 00:28:25;;;;;;;817.38;734.63;;;18.90;99.90;;;;;;5043449;28;20218;-81
2022/09/10 00:30:55;;;;;;;825.38;742.50;;;18.90;99.90;;;;;;5048743;28;20274;-82
2022/09/10 00:33:23;;;;;;;809.25;726.72;;;18.90;99.90;;;;;;5053434;28;20194;-83
2022/09/10 00:35:50;;;;;;;823.58;740.65;;;18.90;99.90;;;;;;5052699;28;20758;-83
2022/09/10 00:38:17;;;;;;;826.88;744.08;;;18.80;99.90;;;;;;5051845;28;20198;-83
2022/09/10 00:40:45;;;;;;;815.20;732.55;;;18.80;99.90;;;;;;5047342;28;20222;-83
2022/09/10 00:43:15;;;;;;;812.83;730.22;;;18.80;99.90;;;;;;5052606;28;20222;-84
2022/09/10 00:45:43;;;;;;;820.25;737.42;;;18.80;99.90;;;;;;5050865;28;20209;-84
2022/09/10 00:48:16;;;;;;;810.33;727.85;;;18.80;99.90;;;;;;5049446;28;20686;-84
2022/09/10 00:50:45;;;;;;;816.20;733.50;;;18.80;99.90;;;;;;5051114;28;20206;-84
2022/09/10 00:53:16;;;;;;;826.03;742.88;;;18.80;99.90;;;;;;5042934;28;20199;-83
2022/09/10 00:55:46;;;;;;;798.80;716.47;;;18.80;99.90;;;;;;5050719;28;20203;-83
2022/09/10 00:58:14;;;;;;;831.45;748.25;;;18.80;99.90;;;;;;5047775;28;20285;-82
2022/09/10 01:00:41;;;;;;;821.13;738.47;;;18.70;99.90;;;;;;5049079;28;20218;-83
2022/09/10 01:03:12;;;;;;;794.97;712.90;;;18.70;99.90;;;;;;5051280;28;20222;-83
2022/09/10 01:05:41;;;;;;;802.10;720.03;;;18.70;99.90;;;;;;5049060;28;20210;-83
2022/09/10 01:08:12;;;;;;;822.00;739.20;;;18.70;99.90;;;;;;5042892;28;20655;-83
2022/09/10 01:11:05;;;;;;;814.00;731.47;;;18.70;99.90;;;;;;5051921;28;20670;-81
2022/09/10 01:13:45;;;;;;;813.60;731.00;;;18.70;99.90;;;;;;5051222;28;20260;-83
2022/09/10 01:16:21;;;;;;;818.70;735.92;;;18.70;99.90;;;;;;5047152;28;20207;-83
2022/09/10 01:18:58;;;;;;;798.78;716.47;;;18.70;99.90;;;;;;5053006;28;20191;-83
2022/09/10 01:21:31;;;;;;;819.00;736.30;;;18.70;99.90;;;;;;5047022;28;20241;-82
2022/09/10 01:24:23;;;;;;;807.92;725.47;;;18.70;99.90;;;;;;5040994;28;20648;-82
2022/09/10 01:27:31;;;;;;;806.80;724.42;;;18.70;99.90;;;;;;5049929;28;20246;-83
2022/09/10 01:30:04;;;;;;;809.58;727.20;;;18.70;99.90;;;;;;5010830;28;20231;-83
2022/09/10 01:32:35;;;;;;;801.95;719.65;;;18.70;99.90;;;;;;5044507;28;20207;-82
2022/09/10 01:35:13;;;;;;;800.53;718.28;;;18.70;99.90;;;;;;5047872;28;20896;-83
2022/09/10 01:37:44;;;;;;;803.65;721.35;;;18.70;99.90;;;;;;5049935;28;20203;-83
2022/09/10 01:40:11;;;;;;;814.22;731.67;;;18.70;99.90;;;;;;5044640;28;20193;-83
2022/09/10 01:42:40;;;;;;;811.83;729.33;;;18.70;99.90;;;;;;5050010;28;20257;-82
2022/09/10 01:45:10;;;;;;;805.85;723.70;;;18.70;99.90;;;;;;5051160;28;20848;-83
2022/09/10 01:48:05;;;;;;;810.03;727.45;;;18.70;99.90;;;;;;5044274;28;20674;-83
2022/09/10 01:50:41;;;;;;;810.40;727.90;;;18.70;99.90;;;;;;5052009;28;20298;-82
2022/09/10 01:53:29;;;;;;;807.97;725.40;;;18.70;99.90;;;;;;5042666;28;20200;-84
2022/09/10 01:56:04;;;;;;;798.55;716.35;;;18.60;99.90;;;;;;5052027;28;20692;-83
2022/09/10 01:58:35;;;;;;;804.00;721.50;;;18.70;99.90;;;;;;5047828;28;20657;-83
2022/09/10 02:01:11;;;;;;;811.55;729.15;;;18.70;99.90;;;;;;5049770;28;20191;-83
2022/09/10 02:03:39;;;;;;;793.00;710.80;;;18.60;99.90;;;;;;5048607;28;20254;-83
2022/09/10 02:06:10;;;;;;;810.20;727.60;;;18.60;99.90;;;;;;5050569;28;20203;-83
2022/09/10 02:08:40;;;;;;;817.67;735.00;;;18.60;99.90;;;;;;5046305;28;20298;-84
2022/09/10 02:11:11;;;;;;;802.55;720.33;;;18.60;99.90;;;;;;5043402;28;20195;-83
2022/09/10 02:13:41;;;;;;;810.17;727.70;;;18.60;99.90;;;;;;5049727;28;20210;-84
2022/09/10 02:16:11;;;;;;;803.90;721.42;;;18.60;99.90;;;;;;5050182;28;20202;-84
2022/09/10 02:18:39;;;;;;;778.70;696.90;;;18.60;99.90;;;;;;5051615;28;20207;-84
2022/09/10 02:21:06;;;;;;;821.58;738.58;;;18.60;99.90;;;;;;5042041;28;20191;-84
2022/09/10 02:23:38;;;;;;;793.58;711.67;;;18.60;99.90;;;;;;5049228;28;20225;-80
2022/09/10 02:26:05;;;;;;;804.40;722.10;;;18.50;99.90;;;;;;5046092;28;20218;-81
2022/09/10 02:28:31;;;;;;;804.70;721.83;;;18.50;99.90;;;;;;5049719;28;20195;-80
2022/09/10 02:31:00;;;;;;;810.95;727.97;;;18.50;99.90;;;;;;5046969;28;20716;-81
2022/09/10 02:33:27;;;;;;;813.90;731.33;;;18.50;99.90;;;;;;5049733;28;20195;-80
2022/09/10 02:35:54;;;;;;;809.08;726.58;;;18.50;99.90;;;;;;5047867;28;20203;-80
2022/09/10 02:38:21;;;;;;;816.97;734.30;;;18.50;99.90;;;;;;5046153;28;20191;-78
2022/09/10 02:40:48;;;;;;;796.78;714.45;;;18.50;99.90;;;;;;5051391;28;20195;-78
2022/09/10 02:43:16;;;;;;;824.22;741.35;;;18.50;99.90;;;;;;5048380;28;20685;-77
2022/09/10 02:45:44;;;;;;;815.80;733.13;;;18.50;99.90;;;;;;5042958;28;20218;-79
2022/09/10 02:48:12;;;;;;;794.05;712.00;;;18.50;99.90;;;;;;5051477;28;20191;-78
2022/09/10 02:50:40;;;;;;;802.22;720.15;;;18.50;99.90;;;;;;5051268;28;20219;-77
2022/09/10 02:53:07;;;;;;;809.97;727.58;;;18.50;99.90;;;;;;5043000;28;20321;-78
2022/09/10 02:55:34;;;;;;;816.90;734.35;;;18.50;99.90;;;;;;5044187;28;20681;-77
2022/09/10 02:58:00;;;;;;;802.05;719.63;;;18.50;99.90;;;;;;5049006;28;20191;-77
2022/09/10 03:00:27;;;;;;;810.05;727.50;;;18.50;99.90;;;;;;5044597;28;20210;-78
2022/09/10 03:02:55;;;;;;;807.42;724.92;;;18.50;99.90;;;;;;5049727;28;20215;-79
2022/09/10 03:05:23;;;;;;;807.50;724.88;;;18.50;99.90;;;;;;5051234;28;20191;-77
2022/09/10 03:07:50;;;;;;;799.92;717.65;;;18.50;99.90;;;;;;5044585;28;20212;-77
2022/09/10 03:10:17;;;;;;;800.03;717.42;;;18.50;99.90;;;;;;5051318;28;20264;-77
2022/09/10 03:12:44;;;;;;;796.72;714.38;;;18.50;99.90;;;;;;5049461;28;20203;-77
2022/09/10 03:15:11;;;;;;;796.53;714.33;;;18.40;99.90;;;;;;5045689;28;20191;-77
2022/09/10 03:17:38;;;;;;;787.65;705.95;;;18.40;99.90;;;;;;5050776;28;20692;-78
2022/09/10 03:20:06;;;;;;;819.60;736.70;;;18.50;99.90;;;;;;5036507;28;20195;-77
2022/09/10 03:22:34;;;;;;;793.97;712.00;;;18.40;99.90;;;;;;5047394;28;20385;-79
2022/09/10 03:25:01;;;;;;;790.20;708.17;;;18.40;99.90;;;;;;5049768;28;20682;-78
2022/09/10 03:27:28;;;;;;;793.15;711.03;;;18.40;99.90;;;;;;5049075;28;20202;-78
2022/09/10 03:29:54;;;;;;;795.45;713.28;;;18.40;99.90;;;;;;5049728;28;20681;-77
2022/09/10 03:32:22;;;;;;;790.15;708.20;;;18.40;99.90;;;;;;5041738;28;20861;-78
2022/09/10 03:34:49;;;;;;;804.45;722.00;;;18.40;99.90;;;;;;5049167;28;20195;-77
2022/09/10 03:37:16;;;;;;;794.53;712.35;;;18.40;99.90;;;;;;5042669;28;20207;-79
2022/09/10 03:39:44;;;;;;;793.65;711.58;;;18.40;99.90;;;;;;5043055;28;20195;-77
2022/09/10 03:42:11;;;;;;;782.35;700.67;;;18.40;99.90;;;;;;5042608;28;20191;-77
2022/09/10 03:44:37;;;;;;;791.25;709.10;;;18.40;99.90;;;;;;5042758;28;20211;-80
2022/09/10 03:47:04;;;;;;;817.00;734.22;;;18.40;99.90;;;;;;5048720;28;20199;-77
2022/09/10 03:49:31;;;;;;;813.92;731.28;;;18.40;99.90;;;;;;5050544;28;20642;-78
2022/09/10 03:51:58;;;;;;;802.25;719.90;;;18.40;99.90;;;;;;5043573;28;20199;-79
2022/09/10 03:54:24;;;;;;;810.75;728.20;;;18.40;99.90;;;;;;5049019;28;20191;-78
2022/09/10 03:56:53;;;;;;;802.05;719.60;;;18.40;99.90;;;;;;5048399;28;20202;-78
2022/09/10 03:59:20;;;;;;;813.33;730.60;;;18.40;99.90;;;;;;5041747;28;20204;-78
2022/09/10 04:01:47;;;;;;;782.30;700.70;;;18.40;99.90;;;;;;5043515;28;20191;-79
2022/09/10 04:04:15;;;;;;;793.72;711.83;;;18.40;99.90;;;;;;5050754;28;20226;-79
2022/09/10 04:06:43;;;;;;;784.55;702.75;;;18.40;99.90;;;;;;5044248;28;20211;-78
2022/09/10 04:09:10;;;;;;;789.28;707.25;;;18.40;99.90;;;;;;5048131;28;22202;-78
2022/09/10 04:11:37;;;;;;;785.55;703.67;;;18.40;99.90;;;;;;5049110;28;20210;-77
2022/09/10 04:14:06;;;;;;;789.47;707.53;;;18.40;99.90;;;;;;5049454;28;20206;-77
2022/09/10 04:16:33;;;;;;;800.65;718.15;;;18.40;99.90;;;;;;5043791;28;20287;-78
2022/09/10 04:19:00;;;;;;;786.45;704.63;;;18.40;99.90;;;;;;5045320;28;20191;-80
2022/09/10 04:21:27;;;;;;;790.63;708.80;;;18.30;99.90;;;;;;5045851;28;20191;-77
2022/09/10 04:23:54;;;;;;;790.80;708.90;;;18.40;99.90;;;;;;5043469;28;20211;-78
2022/09/10 04:26:22;;;;;;;792.88;710.80;;;18.30;99.90;;;;;;5053270;28;20195;-78
2022/09/10 04:28:49;;;;;;;797.28;714.38;;;18.30;99.90;;;;;;5052194;28;20587;-77
2022/09/10 04:31:17;;;;;;;793.70;711.85;;;18.30;99.90;;;;;;5050901;28;20582;-77
2022/09/10 04:33:44;;;;;;;798.67;716.42;;;18.30;99.90;;;;;;5053686;28;20214;-78
2022/09/10 04:36:13;;;;;;;794.17;711.90;;;18.30;99.90;;;;;;5049923;28;20200;-79
2022/09/10 04:38:40;;;;;;;799.38;717.20;;;18.30;99.90;;;;;;5049437;28;20195;-78
2022/09/10 04:41:08;;;;;;;789.70;707.70;;;18.30;99.90;;;;;;5053604;28;20192;-78
2022/09/10 04:43:35;;;;;;;766.15;684.67;;;18.30;99.90;;;;;;5052704;28;20193;-80
2022/09/10 04:46:02;;;;;;;790.38;708.40;;;18.30;99.90;;;;;;5051013;28;20680;-77
2022/09/10 04:48:30;;;;;;;792.13;710.17;;;18.30;99.90;;;;;;5049046;28;20286;-79
2022/09/10 04:50:57;;;;;;;792.28;710.40;;;18.30;99.90;;;;;;5050055;28;20215;-77
2022/09/10 04:53:24;;;;;;;794.55;712.55;;;18.30;99.90;;;;;;5048254;28;20792;-78
2022/09/10 04:55:51;;;;;;;797.97;715.67;;;18.30;99.90;;;;;;5053244;28;20202;-77
2022/09/10 04:58:18;;;;;;;799.67;717.60;;;18.30;99.90;;;;;;5052919;28;20662;-80
2022/09/10 05:00:45;;;;;;;776.20;694.60;;;18.30;99.90;;;;;;5050313;28;20214;-77
2022/09/10 05:03:13;;;;;;;789.25;707.25;;;18.20;99.90;;;;;;5049938;28;20671;-79
2022/09/10 05:05:41;;;;;;;793.60;711.55;;;18.30;99.90;;;;;;5044886;28;20196;-77
2022/09/10 05:08:08;;;;;;;782.38;700.63;;;18.30;99.90;;;;;;5051155;28;20257;-78
2022/09/10 05:10:37;;;;;;;808.90;726.60;;;18.30;99.90;;;;;;5052268;28;20210;-77
2022/09/10 05:13:04;;;;;;;781.55;699.97;;;18.30;99.90;;;;;;5042514;28;20555;-79
2022/09/10 05:15:31;;;;;;;794.92;713.03;;;18.30;99.90;;;;;;5050738;28;20195;-76
2022/09/10 05:17:58;;;;;;;779.17;697.33;;;18.20;99.90;;;;;;5047121;28;20211;-79
2022/09/10 05:20:26;;;;;;;769.20;687.70;;;18.30;99.90;;;;;;5052007;28;20199;-78
2022/09/10 05:22:55;;;;;;;775.47;693.53;;;18.30;99.90;;;;;;5048794;28;20281;-77
2022/09/10 05:25:21;;;;;;;781.53;699.72;;;18.30;99.90;;;;;;5051585;28;20190;-77
2022/09/10 05:27:50;;;;;;;788.13;706.22;;;18.30;99.90;;;;;;5052294;28;20191;-77
2022/09/10 05:30:17;;;;;;;785.25;703.67;;;18.30;99.90;;;;;;5050561;28;20224;-77
2022/09/10 05:32:43;;;;;;;775.50;693.88;;;18.30;99.90;;;;;;5042259;28;20662;-78
2022/09/10 05:35:10;;;;;;;784.03;702.03;;;18.30;99.90;;;;;;5052582;28;20191;-79
2022/09/10 05:37:37;;;;;;;793.70;711.83;;;18.30;99.90;;;;;;5044462;28;20203;-77
2022/09/10 05:40:07;;;;;;;800.28;717.88;;;18.30;99.90;;;;;;5051485;28;20567;-80
2022/09/10 05:42:34;;;;;;;777.40;695.75;;;18.30;99.90;;;;;;5049949;28;20685;-78
2022/09/10 05:45:01;;;;;;;802.30;720.22;;;18.30;99.90;;;;;;5050761;28;20195;-77
2022/09/10 05:47:28;;;;;;;787.00;705.05;;;18.20;99.90;;;;;;5042870;28;20667;-80
2022/09/10 05:49:55;;;;;;;797.58;715.58;;;18.30;99.90;;;;;;5048158;28;20678;-78
2022/09/10 05:52:23;;;;;;;783.47;701.78;;;18.30;99.90;;;;;;5045685;28;20635;-79
2022/09/10 05:54:50;;;;;;;775.00;693.60;;;18.30;99.90;;;;;;5050516;28;20207;-78
2022/09/10 05:57:18;;;;;;;774.17;692.80;;;18.30;99.90;;;;;;5051755;28;20199;-80
2022/09/10 05:59:45;;;;;;;787.90;706.13;;;18.30;99.90;;;;;;5042730;28;20285;-79
2022/09/10 06:02:16;;;;;;;787.72;705.72;;;18.30;99.90;;;;;;5047276;28;20286;-80
2022/09/10 06:04:43;;;;;;;765.28;684.25;;;18.30;99.90;;;;;;5048929;28;20269;-80
2022/09/10 06:07:12;;;;;;;779.97;698.40;;;18.30;99.90;;;;;;5043930;28;20202;-79
2022/09/10 06:09:38;;;;;;;786.65;704.85;;;18.30;99.90;;;;;;5051101;28;20811;-79
2022/09/10 06:12:06;;;;;;;785.83;703.92;;;18.30;99.90;;;;;;5050841;28;20676;-79
2022/09/10 06:14:36;;;;;;;789.25;707.30;;;18.30;99.90;;;;;;5044787;28;20204;-80
2022/09/10 06:17:03;;;;;;;782.13;700.58;;;18.30;99.90;;;;;;5050098;28;20291;-80
2022/09/10 06:19:30;;;;;;;778.58;696.92;;;18.30;99.90;;;;;;5051521;28;20722;-81
2022/09/10 06:21:56;;;;;;;769.05;687.70;;;18.30;99.90;;;;;;5040615;28;20203;-79
2022/09/10 06:24:24;;;;;;;774.35;692.85;;;18.30;99.90;;;;;;5048853;28;20217;-79
2022/09/10 06:26:51;;;;;;;796.80;714.80;;;18.30;99.90;;;;;;5047123;28;20203;-79
2022/09/10 06:29:19;;;;;;;787.40;705.80;;;18.30;99.90;;;;;;5049442;28;20206;-78
2022/09/10 06:31:47;;;;;;;785.70;703.72;;;18.30;99.90;;;;;;5049865;28;20270;-80
2022/09/10 06:34:17;;;;;;;781.80;699.97;;;18.30;99.90;;;;;;5041644;28;20207;-78
2022/09/10 06:36:46;;;;;;;794.25;712.38;;;18.30;99.90;;;;;;5046460;28;20211;-78
2022/09/10 06:39:13;;;;;;;789.85;708.08;;;18.30;99.90;;;;;;5045755;28;20671;-79
2022/09/10 06:41:41;;;;;;;793.60;711.78;;;18.30;99.90;;;;;;5048938;28;20199;-78
2022/09/10 06:44:08;;;;;;;781.42;699.72;;;18.30;99.90;;;;;;5050877;28;20197;-79
2022/09/10 06:46:35;;;;;;;775.90;694.58;;;18.30;99.90;;;;;;5047242;28;20877;-79
2022/09/10 06:49:03;;;;;;;773.45;692.15;;;18.30;99.90;;;;;;5048042;28;20196;-79
2022/09/10 06:51:31;;;;;;;771.80;690.45;;;18.30;99.90;;;;;;5048152;28;20210;-78
2022/09/10 06:53:58;;;;;;;791.25;709.28;;;18.30;99.90;;;;;;5049898;28;20203;-78
2022/09/10 06:56:25;;;;;;;786.65;705.17;;;18.40;99.90;;;;;;5048299;28;20229;-77
2022/09/10 06:58:51;;;;;;;791.45;709.75;;;18.30;99.90;;;;;;5045679;28;20760;-80
2022/09/10 07:01:20;;;;;;;776.65;695.25;;;18.40;99.90;;;;;;5047044;28;20195;-77
2022/09/10 07:03:47;;;;;;;783.67;702.08;;;18.30;99.90;;;;;;5053113;28;20297;-78
2022/09/10 07:06:18;;;;;;;780.30;698.83;;;18.40;99.90;;;;;;5048604;28;20194;-79
2022/09/10 07:08:45;;;;;;;775.35;693.60;;;18.30;99.90;;;;;;5050975;28;20665;-78
2022/09/10 07:11:14;;;;;;;792.95;711.17;;;18.30;99.90;;;;;;5061623;28;20226;-78
2022/09/10 07:13:42;;;;;;;783.92;702.28;;;18.30;99.90;;;;;;5051245;28;20662;-78
2022/09/10 07:16:09;;;;;;;788.92;707.33;;;18.30;99.90;;;;;;5041248;28;20270;-79
2022/09/10 07:18:36;;;;;;;795.22;713.13;;;18.30;99.90;;;;;;5050630;28;20260;-79
2022/09/10 07:21:10;;;;;;;798.78;716.88;;;18.40;99.90;;;;;;5047090;28;20195;-79
2022/09/10 07:23:39;;;;;;;807.42;725.13;;;18.30;99.90;;;;;;5050017;28;20197;-81
2022/09/10 07:26:06;;;;;;;780.90;699.22;;;18.30;99.90;;;;;;5050890;28;20237;-80
2022/09/10 07:28:35;;;;;;;796.55;714.40;;;18.40;99.90;;;;;;5049228;28;20250;-80
2022/09/10 07:31:12;;;;;;;791.45;709.75;;;18.40;99.90;;;;;;5048860;28;20211;-80
2022/09/10 07:33:39;;;;;;;778.60;697.10;;;18.40;99.90;;;;;;5048526;28;20670;-80
2022/09/10 07:36:06;;;;;;;786.83;705.10;;;18.40;99.90;;;;;;5041309;28;20206;-81
2022/09/10 07:38:33;;;;;;;788.33;706.47;;;18.40;99.90;;;;;;5047901;28;20720;-81
2022/09/10 07:41:02;;;;;;;772.22;691.00;;;18.40;99.90;;;;;;5049312;28;20199;-83
2022/09/10 07:43:29;;;;;;;779.42;698.05;;;18.40;99.90;;;;;;5048136;28;20706;-83
2022/09/10 07:45:56;;;;;;;780.78;699.55;;;18.40;99.90;;;;;;5049082;28;20210;-82
2022/09/10 07:48:26;;;;;;;788.10;706.53;;;18.40;99.90;;;;;;5051430;28;20241;-84
2022/09/10 07:51:04;;;;;;;801.35;719.45;;;18.50;99.90;;;;;;5043865;28;20305;-85
2022/09/10 07:53:31;;;;;;;794.03;712.22;;;18.50;99.90;;;;;;5039430;28;20212;-86
2022/09/10 07:56:01;;;;;;;792.92;711.35;;;18.50;99.90;;;;;;5045253;28;20696;-88
2022/09/10 07:58:30;;;;;;;780.80;699.45;;;18.60;99.90;;;;;;5050369;28;20240;-88
2022/09/10 08:00:58;;;;;;;788.92;707.22;;;18.60;99.90;;;;;;5053467;28;20708;-90
2022/09/10 08:03:25;;;;;;;793.88;712.08;;;18.60;99.90;;;;;;5054741;28;20214;-90
2022/09/10 08:05:52;;;;;;;798.63;716.55;;;18.60;99.90;;;;;;5038507;28;20206;-89
2022/09/10 08:08:19;;;;;;;792.30;710.42;;;18.60;99.90;;;;;;5053400;28;20194;-88
2022/09/10 08:10:47;;;;;;;779.67;698.22;;;18.60;99.90;;;;;;5053684;28;20223;-92
2022/09/10 08:13:15;;;;;;;768.60;687.60;;;18.60;99.90;;;;;;5048464;28;20281;-91
2022/09/10 08:15:43;;;;;;;796.35;714.50;;;18.60;99.90;;;;;;5050174;28;20199;-92
2022/09/10 08:18:10;;;;;;;808.28;726.17;;;18.60;99.90;;;;;;5046322;28;20189;-91
2022/09/10 08:20:38;;;;;;;803.53;721.63;;;18.60;99.90;;;;;;5048169;28;20237;-87
2022/09/10 08:23:05;;;;;;;807.17;725.05;;;18.60;99.90;;;;;;5046340;28;20203;-87
2022/09/10 08:25:33;;;;;;;796.80;715.20;;;18.60;99.90;;;;;;5051388;28;20218;-83
2022/09/10 08:28:00;;;;;;;806.28;724.13;;;18.60;99.90;;;;;;5052784;28;20202;-83
2022/09/10 08:30:30;;;;;;;784.92;703.42;;;18.70;99.90;;;;;;5052643;28;20626;-84
2022/09/10 08:32:57;;;;;;;795.20;713.45;;;18.70;99.90;;;;;;5057054;28;20207;-85
2022/09/10 08:35:24;;;;;;;799.78;717.80;;;18.70;99.90;;;;;;5068366;28;20248;-83
2022/09/10 08:37:51;;;;;;;806.45;724.47;;;18.70;99.90;;;;;;5048187;28;20248;-84
2022/09/10 08:40:18;;;;;;;798.97;717.08;;;18.70;99.90;;;;;;5040393;28;20686;-84
2022/09/10 08:42:48;;;;;;;803.42;721.28;;;18.70;99.90;;;;;;5045727;28;20195;-82
2022/09/10 08:45:20;;;;;;;819.88;737.42;;;18.80;99.90;;;;;;5051112;28;20226;-82
2022/09/10 08:47:55;;;;;;;813.70;731.33;;;18.80;99.90;;;;;;5051404;28;20786;-82
2022/09/10 08:50:28;;;;;;;819.45;737.15;;;18.90;99.90;;;;;;5053237;28;20661;-81
2022/09/10 08:52:59;;;;;;;806.58;724.38;;;18.90;99.90;;;;;;5043701;28;20195;-83
2022/09/10 08:55:31;;;;;;;809.67;727.28;;;19.00;99.90;;;;;;5048993;28;20650;-85
2022/09/10 08:58:00;;;;;;;811.60;728.95;;;19.00;99.90;;;;;;5053009;28;20261;-83
2022/09/10 09:00:33;;;;;;;831.58;748.67;;;19.00;99.90;;;;;;5049129;28;20549;-84
2022/09/10 09:03:05;;;;;;;807.15;725.28;;;19.00;99.90;;;;;;5051760;28;20222;-85
2022/09/10 09:05:44;;;;;;;827.83;744.95;;;19.00;99.90;;;;;;5050886;28;20217;-84
2022/09/10 09:08:13;;;;;;;808.38;726.17;;;19.00;99.90;;;;;;5047859;28;20198;-85
2022/09/10 09:10:47;;;;;;;817.53;735.13;;;19.00;99.90;;;;;;5046831;28;20202;-85
2022/09/10 09:13:34;;;;;;;811.15;728.95;;;19.00;99.90;;;;;;5048118;28;20662;-85
2022/09/10 09:16:19;;;;;;;814.35;732.20;;;19.00;99.90;;;;;;5042342;28;20211;-86
2022/09/10 09:19:04;;;;;;;810.72;728.63;;;19.00;99.90;;;;;;5049064;28;20304;-83
2022/09/10 09:21:40;;;;;;;805.65;723.58;;;19.00;99.90;;;;;;5050371;28;20222;-84
2022/09/10 09:24:18;;;;;;;816.22;733.67;;;19.00;99.90;;;;;;5047080;28;20658;-86
2022/09/10 09:26:46;;;;;;;813.38;731.28;;;19.00;99.90;;;;;;5047361;28;20562;-83
2022/09/10 09:29:16;;;;;;;811.25;729.15;;;19.00;99.90;;;;;;5058395;28;20249;-85
2022/09/10 09:31:49;;;;;;;788.85;707.15;;;19.00;99.90;;;;;;5050404;28;20226;-85
2022/09/10 09:34:22;;;;;;;829.50;746.75;;;19.00;99.90;;;;;;5052529;28;20755;-83
2022/09/10 09:36:51;;;;;;;803.53;721.45;;;19.00;99.90;;;;;;5046226;28;20198;-82
2022/09/10 09:39:23;;;;;;;801.47;719.53;;;19.00;99.90;;;;;;5052171;28;20558;-82
2022/09/10 09:41:59;;;;;;;823.25;740.55;;;19.10;99.90;;;;;;5051227;28;20203;-83
2022/09/10 09:44:31;;;;;;;835.58;752.70;;;19.10;99.90;;;;;;5052058;28;20260;-82
2022/09/10 09:46:58;;;;;;;824.03;741.30;;;19.10;99.90;;;;;;5049028;28;20590;-80
2022/09/10 09:49:26;;;;;;;829.78;747.10;;;19.10;99.90;;;;;;5046066;28;20202;-82
2022/09/10 09:51:53;;;;;;;827.65;744.97;;;19.10;99.90;;;;;;5043446;28;20720;-82
2022/09/10 09:54:25;;;;;;;821.50;739.00;;;19.10;99.90;;;;;;5045097;28;20214;-81
2022/09/10 09:56:55;;;;;;;836.47;753.45;;;19.10;99.90;;;;;;5050243;28;20282;-85
2022/09/10 09:59:26;;;;;;;821.95;739.22;;;19.10;99.90;;;;;;5047545;28;20204;-84
2022/09/10 10:01:55;;;;;;;823.33;740.83;;;19.10;99.90;;;;;;5049608;28;20199;-84
2022/09/10 10:04:24;;;;;;;824.05;741.30;;;19.10;99.90;;;;;;5050930;28;20686;-84
2022/09/10 10:06:57;;;;;;;827.20;744.70;;;19.10;99.90;;;;;;5044341;28;20188;-85
2022/09/10 10:09:27;;;;;;;823.97;741.47;;;19.10;99.90;;;;;;5042913;28;20203;-83
2022/09/10 10:11:57;;;;;;;816.35;733.80;;;19.10;99.90;;;;;;5045644;28;20219;-86
2022/09/10 10:14:37;;;;;;;827.72;745.13;;;19.10;99.90;;;;;;5048019;28;20198;-83
2022/09/10 10:17:22;;;;;;;825.90;742.88;;;19.10;99.90;;;;;;5046515;28;20278;-84
2022/09/10 10:19:58;;;;;;;828.70;745.85;;;19.20;99.90;;;;;;5047843;28;20198;-83
2022/09/10 10:22:29;;;;;;;830.55;747.95;;;19.20;99.90;;;;;;5043750;28;20195;-82
2022/09/10 10:24:55;;;;;;;839.15;756.15;;;19.20;99.90;;;;;;5046850;28;20276;-84
2022/09/10 10:27:31;;;;;;;805.47;723.50;;;19.20;99.90;;;;;;5049220;28;20206;-81
2022/09/10 10:30:00;;;;;;;837.33;754.25;;;19.20;99.90;;;;;;5046346;28;20565;-81
2022/09/10 10:32:38;;;;;;;810.85;728.70;;;19.20;99.90;;;;;;5054531;28;20223;-82
2022/09/10 10:35:19;;;;;;;814.97;732.78;;;19.20;99.90;;;;;;5045394;28;20250;-82
2022/09/10 10:38:00;;;;;;;825.72;743.25;;;19.20;99.90;;;;;;5046348;28;20230;-83
2022/09/10 10:40:32;;;;;;;832.55;749.80;;;19.20;99.90;;;;;;5050425;28;20630;-84
2022/09/10 10:43:09;;;;;;;822.97;740.72;;;19.20;99.90;;;;;;5049149;28;20198;-84
2022/09/10 10:45:47;;;;;;;792.35;710.72;;;19.20;99.90;;;;;;5046150;28;20248;-83
2022/09/10 10:48:23;;;;;;;812.72;730.42;;;19.10;99.90;;;;;;5050635;28;20202;-82
2022/09/10 10:50:55;;;;;;;823.03;740.50;;;19.10;99.90;;;;;;5048930;28;20198;-84
2022/09/10 10:53:37;;;;;;;818.33;735.95;;;19.10;99.90;;;;;;5042579;28;20206;-82
2022/09/10 10:56:11;;;;;;;842.92;759.75;;;19.10;99.90;;;;;;5050482;28;20195;-82
2022/09/10 10:58:58;;;;;;;823.08;740.47;;;19.10;99.90;;;;;;5049832;28;20197;-82
2022/09/10 11:01:28;;;;;;;824.47;742.03;;;19.20;99.90;;;;;;5042618;28;20198;-82
2022/09/10 11:04:01;;;;;;;825.67;743.22;;;19.20;99.90;;;;;;5050625;28;20698;-81
2022/09/10 11:06:34;;;;;;;812.40;730.30;;;19.10;99.90;;;;;;5042852;28;20206;-81
2022/09/10 11:09:07;;;;;;;818.28;736.20;;;19.20;99.90;;;;;;5046614;28;20202;-82
2022/09/10 11:11:40;;;;;;;831.60;748.90;;;19.20;99.90;;;;;;5046167;28;20214;-80
2022/09/10 11:14:20;;;;;;;818.72;736.47;;;19.20;99.90;;;;;;5044095;28;20256;-78
2022/09/10 11:16:50;;;;;;;818.30;736.03;;;19.20;99.90;;;;;;5042087;28;20203;-80
2022/09/10 11:19:23;;;;;;;808.17;726.05;;;19.10;99.90;;;;;;5044439;28;20668;-81
2022/09/10 11:21:54;;;;;;;816.45;734.17;;;19.10;99.90;;;;;;5048428;28;20282;-83
2022/09/10 11:24:26;;;;;;;836.28;753.40;;;19.10;99.90;;;;;;5048959;28;20194;-80
2022/09/10 11:26:58;;;;;;;816.63;734.35;;;19.10;99.90;;;;;;5044992;28;20229;-81
2022/09/10 11:29:34;;;;;;;829.10;746.35;;;19.10;99.90;;;;;;5045719;28;20248;-81
2022/09/10 11:32:07;;;;;;;828.38;745.70;;;19.10;99.90;;;;;;5047353;28;20202;-80
2022/09/10 11:34:42;;;;;;;824.13;741.55;;;19.10;99.90;;;;;;5046527;28;20195;-81
2022/09/10 11:37:16;;;;;;;816.70;734.53;;;19.10;99.90;;;;;;5052524;28;20285;-80
2022/09/10 11:39:48;;;;;;;797.88;715.47;;;19.10;99.90;;;;;;5053215;28;20232;-81
2022/09/10 11:42:23;;;;;;;817.00;735.03;;;19.10;99.90;;;;;;5050120;28;20183;-79
2022/09/10 11:44:59;;;;;;;801.03;719.20;;;19.10;99.90;;;;;;5052335;28;20194;-79
2022/09/10 11:47:31;;;;;;;822.45;740.08;;;19.10;99.90;;;;;;5052417;28;20240;-80
2022/09/10 11:50:02;;;;;;;806.30;724.20;;;19.10;99.90;;;;;;5049945;28;20203;-79
2022/09/10 11:52:30;;;;;;;822.65;740.17;;;19.00;99.90;;;;;;5046762;28;20207;-80
2022/09/10 11:54:58;;;;;;;815.55;733.17;;;19.00;99.90;;;;;;5051262;28;20200;-80
2022/09/10 11:57:33;;;;;;;820.88;738.33;;;19.00;99.90;;;;;;5054221;28;20203;-79
2022/09/10 12:00:15;;;;;;;812.35;730.15;;;19.00;99.90;;;;;;5048295;28;20199;-85
2022/09/10 12:03:12;;;;;;;816.65;734.10;;;19.00;99.90;;;;;;5047951;28;20218;-80
2022/09/10 12:05:54;;;;;;;819.42;736.85;;;19.00;99.90;;;;;;5053605;28;20206;-81
2022/09/10 12:08:31;;;;;;;805.60;723.30;;;19.00;99.90;;;;;;5048606;28;20187;-80
2022/09/10 12:11:09;;;;;;;813.20;730.80;;;18.90;99.90;;;;;;5048224;28;20264;-85
2022/09/10 12:13:38;;;;;;;799.03;717.05;;;18.90;99.90;;;;;;5046138;28;20218;-81
2022/09/10 12:16:14;;;;;;;812.92;730.78;;;18.90;99.90;;;;;;5051641;28;20286;-81
2022/09/10 12:18:44;;;;;;;814.30;731.95;;;18.90;99.90;;;;;;5053992;28;20194;-82
2022/09/10 12:21:27;;;;;;;806.63;724.35;;;18.90;99.90;;;;;;5051317;28;20298;-80
2022/09/10 12:23:55;;;;;;;796.95;715.08;;;18.90;99.90;;;;;;5043246;28;20203;-79